METAR stanice u blizini

 

LYNI - Nis, Yugoslavia
Distance from station: JZ 40km
Ažurirano: 14/05/2021 06:00
Few Clouds
Few Clouds
 Pravac vetra I
Vetar: I 9 km/h
Temperatura: 11°C
Tačka rose: 8°C
Vlažnost: 82%
Pritisak: 1010 hPa
Oblaci: Few Clouds
Vidljivost: 10 km
Cloud details: Few Clouds 1829 m
2021/05/14 04:00 LYNI 140400Z 10005KT 9999 FEW060 11/08 Q1010 NOSIG
LYKV - Kraljevo, Yugoslavia
Distance from station: ZSZ 136km
Ažurirano: 14/05/2021 06:00
Vedro
Vedro
 Pravac vetra calm
Vetar: Tišina
Temperatura: 10°C
Tačka rose: 10°C
Vlažnost: 100%
Pritisak: 1009 hPa
Pregled: Vedro
Vidljivost: greater than 10 km
2021/05/14 04:00 LYKV 140400Z 00000KT CAVOK 10/10 Q1009 NOSIG
LBSF - Sofia (observato, Bulgaria
Distance from station: JI 138km
Ažurirano: 14/05/2021 06:00
Few Clouds
Few Clouds
 Pravac vetra calm
Vetar: Tišina
Temperatura: 7°C
Tačka rose: 6°C
Vlažnost: 93%
Pritisak: 1011 hPa
Oblaci: Few Clouds
Vidljivost: 10 km
Cloud details: Few Clouds 1768 m
2021/05/14 04:00 LBSF 140400Z 00000KT 9999 FEW058 07/06 Q1011 NOSIG
 
BKPR - Prishtina, Yugoslavia
Distance from station: JZ 147km
Ažurirano: 14/05/2021 02:00
NOT Current
Delimično oblačno
Delimično oblačno
 Pravac vetra varies
Vetar: varies 6 km/h
Temperatura: 10°C
Tačka rose: 5°C
Vlažnost: 71%
Pritisak: 1010 hPa
Oblaci: Delimično oblačno
Vidljivost: 10 km
Cloud details: Delimično oblačno 2438 m
2021/05/14 00:00 BKPR 140000Z VRB03KT 9999 SCT080 10/05 Q1010 NOSIG
LRCV - Craiova, Romania
Distance from station: SI 154km
Ažurirano: 14/05/2021 06:00
Mist, Delimično oblačno
Mist, Delimično oblačno
 Pravac vetra ZJZ
Vetar: ZJZ 11 km/h
Temperatura: 11°C
Tačka rose: 10°C
Vlažnost: 94%
Pritisak: 1008 hPa
Pregled: Mist
Oblaci: Delimično oblačno
Vidljivost: 2 km
Cloud details: Delimično oblačno 30 m
2021/05/14 04:00 LRCV 140400Z 25006KT 1500 BR SCT001 11/10 Q1008 R09/29//95
LWSK - Skopje/Petrovac, Macedonia
Distance from station: JJZ 185km
Ažurirano: 14/05/2021 06:00
Delimično oblačno
Delimično oblačno
 Pravac vetra calm
Vetar: Tišina
Temperatura: 10°C
Tačka rose: 8°C
Vlažnost: 88%
Pritisak: 1012 hPa
Oblaci: Delimično oblačno
Vidljivost: 10 km
Cloud details: Few Clouds 1524 m
Delimično oblačno 3048 m
2021/05/14 04:00 LWSK 140400Z 00000KT 9999 FEW050 SCT100 10/08 Q1012 NOSIG
 
LYVR - Vrsac, Yugoslavia
Distance from station: SSZ 189km
Ažurirano: 14/05/2021 06:00
Slaba kiša, Showers, Delimično oblačno
Slaba kiša, Showers, Delimično oblačno
 Pravac vetra J
Vetar: J 13 km/h
Temperatura: 13°C
Tačka rose: 11°C
Vlažnost: 88%
Pritisak: 1007 hPa
Pregled: Slaba kiša, Showers
Oblaci: Delimično oblačno
Vidljivost: 10 km
2021/05/14 04:00 LYVR 140400Z AUTO 17007KT 9999 -SHRA NSC 13/11 Q1007 RESHRA
LYUZ - Uzice-Ponikve, Yugoslavia
Distance from station: Z 207km
Ažurirano: 14/05/2021 06:00
Oblačno
Oblačno
 Pravac vetra JJZ
Vetar: JJZ 7 km/h
Temperatura: 8°C
Osećaj hladnoće: 7°C
Tačka rose: 3°C
Vlažnost: 71%
Pritisak: 1009 hPa
Oblaci: Oblačno
Vidljivost: 10 km
Cloud details: Pretežno oblačno 1402 m
Oblačno 1615 m
2021/05/14 04:00 LYUZ 140400Z AUTO 21004KT 180V240 9999 BKN046/// OVC053/// 08/03 Q1009
LYBE - Belgrade/Surcin, Yugoslavia
Distance from station: SZ 209km
Ažurirano: 14/05/2021 06:00
Delimično oblačno
Delimično oblačno
 Pravac vetra J
Vetar: J 11 km/h
Temperatura: 13°C
Tačka rose: 11°C
Vlažnost: 88%
Pritisak: 1008 hPa
Oblaci: Delimično oblačno
Vidljivost: 10 km
Cloud details: Delimično oblačno 1433 m
2021/05/14 04:00 LYBE 140400Z 17006KT 9999 SCT047 13/11 Q1008 NOSIG
 
LYBT - Batajnica, Yugoslavia
Distance from station: SZ 219km
Ažurirano: 14/05/2021 06:00
Vedro
Vedro
 Pravac vetra JJI
Vetar: JJI 9 km/h
Temperatura: 12°C
Tačka rose: 12°C
Vlažnost: 100%
Pritisak: 1007 hPa
Pregled: Vedro
Vidljivost: greater than 10 km
2021/05/14 04:00 LYBT 140400Z 16005KT CAVOK 12/12 Q1007 NOSIG
LRTR - Timisoara/Giarma, Romania
Distance from station: SSZ 260km
Ažurirano: 14/05/2021 06:00
Slaba kiša, Pretežno oblačno
Slaba kiša, Pretežno oblačno
 Pravac vetra JZ
Vetar: JZ 13 km/h
Temperatura: 12°C
Tačka rose: 12°C
Vlažnost: 100%
Pritisak: 1006 hPa
Pregled: Slaba kiša
Oblaci: Pretežno oblačno
Vidljivost: 8 km
Cloud details: Delimično oblačno 213 m
Pretežno oblačno 762 m
2021/05/14 04:00 LRTR 140400Z 22007KT 8000 -RA SCT007 BKN025 12/12 Q1006 RERA R11/290095
LBPD - Plovdiv, Bulgaria
Distance from station: JI 263km
Ažurirano: 14/05/2021 06:00
Vedro
Vedro
 Pravac vetra ISI
Vetar: ISI 7 km/h
Temperatura: 11°C
Tačka rose: 9°C
Vlažnost: 88%
Pritisak: 1010 hPa
Oblaci: Vedro
Vidljivost: 10 km
2021/05/14 04:00 LBPD 140400Z AUTO 06004KT 9999 NCD 11/09 Q1010 NOSIG
 
LYPG - Podgorica(Titogr, Yugoslavia
Distance from station: ZJZ 278km
Ažurirano: 14/05/2021 06:00
Delimično oblačno
Delimično oblačno
 Pravac vetra varies
Vetar: varies 4 km/h
Temperatura: 11°C
Tačka rose: 11°C
Vlažnost: 100%
Pritisak: 1011 hPa
Oblaci: Delimično oblačno
Vidljivost: 10 km
Cloud details: Few Clouds 1219 m
Delimično oblačno 1524 m
2021/05/14 04:00 LYPG 140400Z VRB02KT 9999 FEW040 SCT050 11/11 Q1011 NOSIG
LBGO - Gorna Orechovist, Bulgaria
Distance from station: I 285km
Ažurirano: 14/05/2021 06:00
Patches of fog, Oblačno
Patches of fog, Oblačno
 Pravac vetra varies
Vetar: varies 2 km/h
Temperatura: 10°C
Tačka rose: 10°C
Vlažnost: 100%
Pritisak: 1009 hPa
Pregled: Patches of Fog
Oblaci: Oblačno
Vidljivost: 1 km
Cloud details: Oblačno 61 m
2021/05/14 04:00 LBGO 140400Z AUTO VRB01KT 1100 0500W R09/0600U BCFG VV002 10/10 Q1009 TEMPO 1500 BR
LRSB - Sibiu/Turnisor, Romania
Distance from station: SSI 286km
Ažurirano: 14/05/2021 06:00
Delimično oblačno
Delimično oblačno
 Pravac vetra varies
Vetar: varies 2 km/h
Temperatura: 11°C
Tačka rose: 10°C
Vlažnost: 94%
Pritisak: 1006 hPa
Oblaci: Delimično oblačno
Vidljivost: 10 km
Cloud details: Pretežno oblačno 1524 m
Delimično oblačno 1920 m
2021/05/14 04:00 LRSB 140400Z VRB01KT 9999 BKN050 SCT063 11/10 Q1006 R27/19//95
 
LWOH - Ohrid, Macedonia
Distance from station: JJZ 292km
Ažurirano: 13/05/2021 17:30
NOT Current
Pretežno oblačno
Pretežno oblačno
 Pravac vetra J
Vetar: J 11 km/h
Temperatura: 15°C
Tačka rose: 5°C
Vlažnost: 51%
Pritisak: 1011 hPa
Oblaci: Pretežno oblačno
Vidljivost: 10 km
Cloud details: Delimično oblačno 1219 m
Pretežno oblačno 1524 m
2021/05/13 15:30 LWOH 131530Z 18006KT 9999 SCT040 BKN050 15/05 Q1011
LQTZ - Tuzla, Yugoslavia
Distance from station: ZSZ 298km
Ažurirano: 14/05/2021 06:00
Delimično oblačno
Delimično oblačno
 Pravac vetra varies
Vetar: varies 2 km/h
Temperatura: 8°C
Tačka rose: 8°C
Vlažnost: 100%
Pritisak: 1007 hPa
Oblaci: Delimično oblačno
Vidljivost: 10 km
Cloud details: Delimično oblačno 1219 m
2021/05/14 04:00 LQTZ 140400Z VRB01KT 9999 SCT040 08/08 Q1007
LRAR - Arad, Romania
Distance from station: SSZ 301km
Ažurirano: 14/05/2021 06:00
Few Clouds
Few Clouds
 Pravac vetra JZ
Vetar: JZ 9 km/h
Temperatura: 12°C
Tačka rose: 12°C
Vlažnost: 100%
Pritisak: 1006 hPa
Oblaci: Few Clouds
Vidljivost: 10 km
Cloud details: Delimično oblačno 518 m
Few Clouds 1219 m
2021/05/14 04:00 LRAR 140400Z 23005KT 9999 SCT017 FEW040CB 12/12 Q1006 R09/29//95
 
LYTV - Tivat, Yugoslavia
Distance from station: ZJZ 315km
Ažurirano: 14/05/2021 06:00
Delimično oblačno
Delimično oblačno
 Pravac vetra calm
Vetar: Tišina
Temperatura: 12°C
Tačka rose: 11°C
Vlažnost: 94%
Pritisak: 1010 hPa
Oblaci: Delimično oblačno
Vidljivost: 10 km
Cloud details: Few Clouds 792 m
Delimično oblačno 1219 m
2021/05/14 04:00 LYTV 140400Z 00000KT 9999 FEW026 SCT040 12/11 Q1010 NOSIG
LATI - Tirana, Albania
Distance from station: JZ 316km
Ažurirano: 14/05/2021 05:50
Delimično oblačno
Delimično oblačno
 Pravac vetra I
Vetar: I 11 km/h
Temperatura: 15°C
Tačka rose: 11°C
Vlažnost: 77%
Pritisak: 1012 hPa
Oblaci: Delimično oblačno
Vidljivost: 10 km
Cloud details: Delimično oblačno 2926 m
2021/05/14 03:50 LATI 140350Z 10006KT 9999 SCT096 15/11 Q1012 NOSIG
LQBK - Banja Luka, Yugoslavia
Distance from station: SZ 426km
Ažurirano: 14/05/2021 06:00
Delimično oblačno
Delimično oblačno
 Pravac vetra JZ
Vetar: JZ 6 km/h
Temperatura: 13°C
Tačka rose: 10°C
Vlažnost: 82%
Pritisak: 1007 hPa
Oblaci: Delimično oblačno
Vidljivost: 10 km
Cloud details: Delimično oblačno 1433 m
2021/05/14 04:00 LQBK 140400Z 22003KT 9999 SCT047 13/10 Q1007 NOSIG
 
LDOS - Osijek, Croatia
Distance from station: SSZ 360km
Ažurirano: 14/05/2021 06:00
Delimično oblačno
Delimično oblačno
 Pravac vetra J
Vetar: J 9 km/h
Temperatura: 11°C
Tačka rose: 10°C
Vlažnost: 94%
Pritisak: 1006 hPa
Oblaci: Delimično oblačno
Vidljivost: 10 km
Cloud details: Delimično oblačno 1128 m
2021/05/14 04:00 LDOS 140400Z 19005KT 9999 SCT037 11/10 Q1006
LDDU - Dubrovnik-Cilipi, Croatia
Distance from station: JZ 352km
Ažurirano: 14/05/2021 06:00
Delimično oblačno
Delimično oblačno
 Pravac vetra I
Vetar: I 15 km/h
Temperatura: 13°C
Tačka rose: 11°C
Vlažnost: 88%
Pritisak: 1010 hPa
Oblaci: Delimično oblačno
Vidljivost: 10 km
Cloud details: Delimično oblačno 488 m
Delimično oblačno 701 m
2021/05/14 04:00 LDDU 140400Z 08008KT 050V140 9999 SCT016 SCT023 13/11 Q1010 NOSIG
LQMO - Mostar Airport, Bosnia-Herzegovina
Distance from station: Z 359km
Ažurirano: 14/05/2021 06:00
Slaba kiša, Pretežno oblačno
Slaba kiša, Pretežno oblačno
 Pravac vetra Z
Vetar: Z 7 km/h
Temperatura: 12°C
Tačka rose: 12°C
Vlažnost: 100%
Pritisak: 1008 hPa
Pregled: Slaba kiša
Oblaci: Pretežno oblačno
Vidljivost: 10 km
Cloud details: Few Clouds 914 m
Pretežno oblačno 1372 m
2021/05/14 04:00 LQMO 140400Z 28004KT 260V350 9999 -RA FEW030 BKN045 12/12 Q1008
 
LQSA - Sarajevo/Butmir, Yugoslavia
Distance from station: Z 311km
Ažurirano: 14/05/2021 06:00
Delimično oblačno
Delimično oblačno
 Pravac vetra IJI
Vetar: IJI 2 km/h
Temperatura: 7°C
Tačka rose: 7°C
Vlažnost: 100%
Pritisak: 1009 hPa
Oblaci: Delimično oblačno
Vidljivost: 10 km
Cloud details: Delimično oblačno 1829 m
2021/05/14 04:00 LQSA 140400Z 11001KT 9999 SCT060 07/07 Q1009
LDSP - Split/Kastel Sta, Croatia
Distance from station: Z 468km
Ažurirano: 14/05/2021 05:30
Oblačno
Oblačno
 Pravac vetra SSZ
Vetar: SSZ 6 km/h
Temperatura: 15°C
Tačka rose: 11°C
Vlažnost: 77%
Pritisak: 1008 hPa
Oblaci: Oblačno
Vidljivost: 10 km
Cloud details: Delimično oblačno 792 m
Pretežno oblačno 975 m
Oblačno 1158 m
2021/05/14 03:30 LDSP 140330Z AUTO 33003KT 250V020 9999 SCT026/// BKN032/// OVC038/// 15/11 Q1008 TEMPO FM0400 -TSRA FEW025CB
LDZD - Zadar/Zemunik, Croatia
Distance from station: ZSZ 567km
Ažurirano: 14/05/2021 06:00
Delimično oblačno
Delimično oblačno
 Pravac vetra I
Vetar: I 11 km/h
Temperatura: 11°C
Tačka rose: 10°C
Vlažnost: 94%
Pritisak: 1008 hPa
Oblaci: Delimično oblačno
Vidljivost: 10 km
Cloud details: Few Clouds 1372 m
Delimično oblačno 2134 m
2021/05/14 04:00 LDZD 140400Z 10006KT 9999 FEW045 SCT070 11/10 Q1008 NOSIG
 
LDZA - Zagreb/Pleso, Croatia
Distance from station: SZ 555km
Ažurirano: 14/05/2021 06:00
Vedro
Vedro
 Pravac vetra calm
Vetar: Tišina
Temperatura: 11°C
Tačka rose: 9°C
Vlažnost: 88%
Pritisak: 1006 hPa
Pregled: Vedro
Vidljivost: greater than 10 km
2021/05/14 04:00 LDZA 140400Z 00000KT CAVOK 11/09 Q1006 NOSIG
LJCE - Cerklje, Slovenia
Distance from station: SZ 680km
Ažurirano: 14/05/2021 06:00
Slaba kiša, Showers, Delimično oblačno
Slaba kiša, Showers, Delimično oblačno
 Pravac vetra JZ
Vetar: JZ 11 km/h
Temperatura: 12°C
Tačka rose: 10°C
Vlažnost: 88%
Pritisak: 1006 hPa
Pregled: Slaba kiša, Showers
Oblaci: Delimično oblačno
Vidljivost: 10 km
2021/05/14 04:00 LJCE 140400Z AUTO 22006KT 9999 -SHRA NSC 12/10 Q1006
LJMB - Maribor, Slovenia
Distance from station: SZ 616km
Ažurirano: 14/05/2021 06:00
Vedro
Vedro
 Pravac vetra varies
Vetar: varies 4 km/h
Temperatura: 9°C
Tačka rose: 9°C
Vlažnost: 100%
Pritisak: 1006 hPa
Pregled: Vedro
Vidljivost: greater than 10 km
2021/05/14 04:00 LJMB 140400Z VRB02KT CAVOK 09/09 Q1006
 
LJLJ - Ljubljana/Brnik, Slovenia
Distance from station: SZ 671km
Ažurirano: 14/05/2021 06:00
Shallow fog, Pretežno oblačno
Shallow fog, Pretežno oblačno
 Pravac vetra varies
Vetar: varies 4 km/h
Temperatura: 10°C
Tačka rose: 9°C
Vlažnost: 94%
Pritisak: 1007 hPa
Pregled: Shallow Fog
Oblaci: Pretežno oblačno
Vidljivost: 10 km
Cloud details: Few Clouds 244 m
Pretežno oblačno 518 m
Pretežno oblačno 2591 m
2021/05/14 04:00 LJLJ 140400Z VRB02KT 9999 MIFG FEW008 BKN017 BKN085 10/09 Q1007 NOSIG
LDRI - Rijeka, Croatia
Distance from station: SZ 650km
Ažurirano: 13/05/2021 19:30
NOT Current
Pretežno oblačno
Pretežno oblačno
 Pravac vetra IJI
Vetar: IJI 7 km/h
Temperatura: 15°C
Tačka rose: 12°C
Vlažnost: 82%
Pritisak: 1006 hPa
Oblaci: Pretežno oblačno
Vidljivost: 10 km
Cloud details: Few Clouds 518 m
Delimično oblačno 914 m
Pretežno oblačno 1311 m
2021/05/13 17:30 LDRI 131730Z 11004KT 9999 FEW017 SCT030 BKN043 15/12 Q1006
LDPL - Pula, Croatia
Distance from station: ZSZ 686km
Ažurirano: 14/05/2021 06:00
Few Clouds
Few Clouds
 Pravac vetra varies
Vetar: varies 4 km/h
Temperatura: 11°C
Tačka rose: 10°C
Vlažnost: 94%
Pritisak: 1007 hPa
Oblaci: Few Clouds
Vidljivost: 10 km
Cloud details: Few Clouds 1524 m
2021/05/14 04:00 LDPL 140400Z VRB02KT 9999 FEW050 11/10 Q1007 NOSIG
 
LJPZ - Portorož, Slovenia
Distance from station: ZSZ 720km
Ažurirano: 14/05/2021 06:00
Padavine, Oblačno
Padavine, Oblačno
 Pravac vetra SSI
Vetar: SSI 4 km/h
Temperatura: 13°C
Tačka rose: 12°C
Vlažnost: 94%
Pritisak: 1007 hPa
Pregled: Padavine
Oblaci: Oblačno
Vidljivost: 7 km
Cloud details: Few Clouds 122 m
Delimično oblačno 518 m
Oblačno 732 m
2021/05/14 04:00 LJPZ 140400Z 02002KT 7000 RA FEW004 SCT017 OVC024 13/12 Q1007